sensor_id;sensor_type;location;lat;lon;timestamp;temperature;humidity
14210;DHT22;7188;56.070;12.698;2024-02-04T00:01:41;5.40;99.90
14210;DHT22;7188;56.070;12.698;2024-02-04T00:04:06;5.50;99.90
14210;DHT22;7188;56.070;12.698;2024-02-04T00:06:32;5.50;99.90
14210;DHT22;7188;56.070;12.698;2024-02-04T00:08:58;5.50;99.90
14210;DHT22;7188;56.070;12.698;2024-02-04T00:11:23;5.50;99.90
14210;DHT22;7188;56.070;12.698;2024-02-04T00:13:49;5.50;99.90
14210;DHT22;7188;56.070;12.698;2024-02-04T00:16:18;5.50;99.90
14210;DHT22;7188;56.070;12.698;2024-02-04T00:18:44;5.40;99.90
14210;DHT22;7188;56.070;12.698;2024-02-04T00:21:09;5.40;99.90
14210;DHT22;7188;56.070;12.698;2024-02-04T00:23:35;5.40;99.90
14210;DHT22;7188;56.070;12.698;2024-02-04T00:26:00;5.40;99.90
14210;DHT22;7188;56.070;12.698;2024-02-04T00:28:26;5.40;99.90
14210;DHT22;7188;56.070;12.698;2024-02-04T00:30:53;5.40;99.90
14210;DHT22;7188;56.070;12.698;2024-02-04T00:33:21;5.40;99.90
14210;DHT22;7188;56.070;12.698;2024-02-04T00:35:47;5.40;99.90
14210;DHT22;7188;56.070;12.698;2024-02-04T00:38:13;5.40;99.90
14210;DHT22;7188;56.070;12.698;2024-02-04T00:40:39;5.40;99.90
14210;DHT22;7188;56.070;12.698;2024-02-04T00:43:04;5.40;99.90
14210;DHT22;7188;56.070;12.698;2024-02-04T00:45:30;5.40;99.90
14210;DHT22;7188;56.070;12.698;2024-02-04T00:48:02;5.40;99.90
14210;DHT22;7188;56.070;12.698;2024-02-04T00:50:27;5.40;99.90
14210;DHT22;7188;56.070;12.698;2024-02-04T00:52:53;5.40;99.90
14210;DHT22;7188;56.070;12.698;2024-02-04T00:55:19;5.40;99.90
14210;DHT22;7188;56.070;12.698;2024-02-04T00:57:45;5.40;99.90
14210;DHT22;7188;56.070;12.698;2024-02-04T01:00:11;5.40;99.90
14210;DHT22;7188;56.070;12.698;2024-02-04T01:02:38;5.40;99.90
14210;DHT22;7188;56.070;12.698;2024-02-04T01:05:04;5.40;99.90
14210;DHT22;7188;56.070;12.698;2024-02-04T01:07:30;5.30;99.90
14210;DHT22;7188;56.070;12.698;2024-02-04T01:09:56;5.40;99.90
14210;DHT22;7188;56.070;12.698;2024-02-04T01:12:21;5.40;99.90
14210;DHT22;7188;56.070;12.698;2024-02-04T01:14:47;5.40;99.90
14210;DHT22;7188;56.070;12.698;2024-02-04T01:17:12;5.30;99.90
14210;DHT22;7188;56.070;12.698;2024-02-04T01:19:38;5.40;99.90
14210;DHT22;7188;56.070;12.698;2024-02-04T01:22:04;5.40;99.90
14210;DHT22;7188;56.070;12.698;2024-02-04T01:24:31;5.40;99.90
14210;DHT22;7188;56.070;12.698;2024-02-04T01:26:57;5.40;99.90
14210;DHT22;7188;56.070;12.698;2024-02-04T01:29:22;5.30;99.90
14210;DHT22;7188;56.070;12.698;2024-02-04T01:31:48;5.30;99.90
14210;DHT22;7188;56.070;12.698;2024-02-04T01:34:14;5.40;99.90
14210;DHT22;7188;56.070;12.698;2024-02-04T01:36:39;5.40;99.90
14210;DHT22;7188;56.070;12.698;2024-02-04T01:39:05;5.40;99.90
14210;DHT22;7188;56.070;12.698;2024-02-04T01:41:31;5.30;99.90
14210;DHT22;7188;56.070;12.698;2024-02-04T01:43:56;5.40;99.90
14210;DHT22;7188;56.070;12.698;2024-02-04T01:46:22;5.40;99.90
14210;DHT22;7188;56.070;12.698;2024-02-04T01:48:48;5.40;99.90
14210;DHT22;7188;56.070;12.698;2024-02-04T01:51:17;5.40;99.90
14210;DHT22;7188;56.070;12.698;2024-02-04T01:53:44;5.40;99.90
14210;DHT22;7188;56.070;12.698;2024-02-04T01:56:11;5.40;99.90
14210;DHT22;7188;56.070;12.698;2024-02-04T01:58:38;5.40;99.90
14210;DHT22;7188;56.070;12.698;2024-02-04T02:03:39;5.40;99.90
14210;DHT22;7188;56.070;12.698;2024-02-04T02:06:06;5.40;99.90
14210;DHT22;7188;56.070;12.698;2024-02-04T02:08:32;5.50;99.90
14210;DHT22;7188;56.070;12.698;2024-02-04T02:11:13;5.50;99.90
14210;DHT22;7188;56.070;12.698;2024-02-04T02:13:41;5.50;99.90
14210;DHT22;7188;56.070;12.698;2024-02-04T02:16:13;5.50;99.90
14210;DHT22;7188;56.070;12.698;2024-02-04T02:18:46;5.40;99.90
14210;DHT22;7188;56.070;12.698;2024-02-04T02:21:38;5.50;99.90
14210;DHT22;7188;56.070;12.698;2024-02-04T02:26:48;5.50;99.90
14210;DHT22;7188;56.070;12.698;2024-02-04T02:29:14;5.50;99.90
14210;DHT22;7188;56.070;12.698;2024-02-04T02:31:41;5.50;99.90
14210;DHT22;7188;56.070;12.698;2024-02-04T02:34:08;5.50;99.90
14210;DHT22;7188;56.070;12.698;2024-02-04T02:36:40;5.50;99.90
14210;DHT22;7188;56.070;12.698;2024-02-04T02:39:23;5.50;99.90
14210;DHT22;7188;56.070;12.698;2024-02-04T02:41:50;5.50;99.90
14210;DHT22;7188;56.070;12.698;2024-02-04T02:44:20;5.60;99.90
14210;DHT22;7188;56.070;12.698;2024-02-04T02:46:47;5.50;99.90
14210;DHT22;7188;56.070;12.698;2024-02-04T02:49:13;5.60;99.90
14210;DHT22;7188;56.070;12.698;2024-02-04T02:51:39;5.60;99.90
14210;DHT22;7188;56.070;12.698;2024-02-04T02:54:05;5.60;99.90
14210;DHT22;7188;56.070;12.698;2024-02-04T02:56:30;5.60;99.90
14210;DHT22;7188;56.070;12.698;2024-02-04T02:58:56;5.60;99.90
14210;DHT22;7188;56.070;12.698;2024-02-04T03:01:21;5.70;99.90
14210;DHT22;7188;56.070;12.698;2024-02-04T03:03:49;5.70;99.90
14210;DHT22;7188;56.070;12.698;2024-02-04T03:06:14;5.70;99.90
14210;DHT22;7188;56.070;12.698;2024-02-04T03:08:40;5.70;99.90
14210;DHT22;7188;56.070;12.698;2024-02-04T03:11:06;5.70;99.90
14210;DHT22;7188;56.070;12.698;2024-02-04T03:13:31;5.70;99.90
14210;DHT22;7188;56.070;12.698;2024-02-04T03:15:57;5.70;99.90
14210;DHT22;7188;56.070;12.698;2024-02-04T03:18:23;5.70;99.90
14210;DHT22;7188;56.070;12.698;2024-02-04T03:20:48;5.70;99.90
14210;DHT22;7188;56.070;12.698;2024-02-04T03:23:14;5.70;99.90
14210;DHT22;7188;56.070;12.698;2024-02-04T03:25:39;5.80;99.90
14210;DHT22;7188;56.070;12.698;2024-02-04T03:28:05;5.80;99.90
14210;DHT22;7188;56.070;12.698;2024-02-04T03:30:31;5.80;99.90
14210;DHT22;7188;56.070;12.698;2024-02-04T03:32:56;5.80;99.90
14210;DHT22;7188;56.070;12.698;2024-02-04T03:35:22;5.80;99.90
14210;DHT22;7188;56.070;12.698;2024-02-04T03:37:47;5.80;99.90
14210;DHT22;7188;56.070;12.698;2024-02-04T03:40:13;5.80;99.90
14210;DHT22;7188;56.070;12.698;2024-02-04T03:42:39;5.80;99.90
14210;DHT22;7188;56.070;12.698;2024-02-04T03:45:06;5.80;99.90
14210;DHT22;7188;56.070;12.698;2024-02-04T03:47:31;5.80;99.90
14210;DHT22;7188;56.070;12.698;2024-02-04T03:49:57;5.80;99.90
14210;DHT22;7188;56.070;12.698;2024-02-04T03:52:23;5.80;99.90
14210;DHT22;7188;56.070;12.698;2024-02-04T03:54:48;5.80;99.90
14210;DHT22;7188;56.070;12.698;2024-02-04T03:57:14;5.80;99.90
14210;DHT22;7188;56.070;12.698;2024-02-04T03:59:39;5.80;99.90
14210;DHT22;7188;56.070;12.698;2024-02-04T04:02:05;5.80;99.90
14210;DHT22;7188;56.070;12.698;2024-02-04T04:04:31;5.90;99.90
14210;DHT22;7188;56.070;12.698;2024-02-04T04:06:57;5.90;99.90
14210;DHT22;7188;56.070;12.698;2024-02-04T04:09:22;5.90;99.90
14210;DHT22;7188;56.070;12.698;2024-02-04T04:11:48;5.90;99.90
14210;DHT22;7188;56.070;12.698;2024-02-04T04:14:14;5.90;99.90
14210;DHT22;7188;56.070;12.698;2024-02-04T04:16:39;5.90;99.90
14210;DHT22;7188;56.070;12.698;2024-02-04T04:19:05;5.90;99.90
14210;DHT22;7188;56.070;12.698;2024-02-04T04:21:31;6.00;99.90
14210;DHT22;7188;56.070;12.698;2024-02-04T04:23:56;5.90;99.90
14210;DHT22;7188;56.070;12.698;2024-02-04T04:26:22;6.00;99.90
14210;DHT22;7188;56.070;12.698;2024-02-04T04:28:47;6.00;99.90
14210;DHT22;7188;56.070;12.698;2024-02-04T04:31:13;5.90;99.90
14210;DHT22;7188;56.070;12.698;2024-02-04T04:33:39;5.90;99.90
14210;DHT22;7188;56.070;12.698;2024-02-04T04:36:04;5.90;99.90
14210;DHT22;7188;56.070;12.698;2024-02-04T04:38:30;5.90;99.90
14210;DHT22;7188;56.070;12.698;2024-02-04T04:40:56;5.90;99.90
14210;DHT22;7188;56.070;12.698;2024-02-04T04:43:21;5.90;99.90
14210;DHT22;7188;56.070;12.698;2024-02-04T04:45:47;5.90;99.90
14210;DHT22;7188;56.070;12.698;2024-02-04T04:48:13;5.90;99.90
14210;DHT22;7188;56.070;12.698;2024-02-04T04:50:38;5.90;99.90
14210;DHT22;7188;56.070;12.698;2024-02-04T04:53:04;5.80;99.90
14210;DHT22;7188;56.070;12.698;2024-02-04T04:55:30;5.80;99.90
14210;DHT22;7188;56.070;12.698;2024-02-04T04:57:55;5.80;99.90
14210;DHT22;7188;56.070;12.698;2024-02-04T05:00:21;5.80;99.90
14210;DHT22;7188;56.070;12.698;2024-02-04T05:02:47;5.80;99.90
14210;DHT22;7188;56.070;12.698;2024-02-04T05:05:13;5.80;99.90
14210;DHT22;7188;56.070;12.698;2024-02-04T05:07:39;5.80;99.90
14210;DHT22;7188;56.070;12.698;2024-02-04T05:10:05;5.80;99.90
14210;DHT22;7188;56.070;12.698;2024-02-04T05:12:32;5.80;99.90
14210;DHT22;7188;56.070;12.698;2024-02-04T05:14:58;5.80;99.90
14210;DHT22;7188;56.070;12.698;2024-02-04T05:17:23;5.80;99.90
14210;DHT22;7188;56.070;12.698;2024-02-04T05:19:49;5.80;99.90
14210;DHT22;7188;56.070;12.698;2024-02-04T05:22:15;5.80;99.90
14210;DHT22;7188;56.070;12.698;2024-02-04T05:24:41;5.80;99.90
14210;DHT22;7188;56.070;12.698;2024-02-04T05:27:07;5.80;99.90
14210;DHT22;7188;56.070;12.698;2024-02-04T05:29:33;5.80;99.90
14210;DHT22;7188;56.070;12.698;2024-02-04T05:31:58;5.80;99.90
14210;DHT22;7188;56.070;12.698;2024-02-04T05:34:24;5.90;99.90
14210;DHT22;7188;56.070;12.698;2024-02-04T05:36:50;5.80;99.90
14210;DHT22;7188;56.070;12.698;2024-02-04T05:39:16;5.90;99.90
14210;DHT22;7188;56.070;12.698;2024-02-04T05:41:42;5.90;99.90
14210;DHT22;7188;56.070;12.698;2024-02-04T05:44:08;5.90;99.90
14210;DHT22;7188;56.070;12.698;2024-02-04T05:46:37;5.90;99.90
14210;DHT22;7188;56.070;12.698;2024-02-04T05:49:03;5.90;99.90
14210;DHT22;7188;56.070;12.698;2024-02-04T05:51:31;5.90;99.90
14210;DHT22;7188;56.070;12.698;2024-02-04T05:53:57;6.00;99.90
14210;DHT22;7188;56.070;12.698;2024-02-04T05:56:23;6.00;99.90
14210;DHT22;7188;56.070;12.698;2024-02-04T05:58:49;6.00;99.90
14210;DHT22;7188;56.070;12.698;2024-02-04T06:01:15;6.00;99.90
14210;DHT22;7188;56.070;12.698;2024-02-04T06:03:42;6.00;99.90
14210;DHT22;7188;56.070;12.698;2024-02-04T06:06:09;6.00;99.90
14210;DHT22;7188;56.070;12.698;2024-02-04T06:08:34;6.00;99.90
14210;DHT22;7188;56.070;12.698;2024-02-04T06:11:00;6.00;99.90
14210;DHT22;7188;56.070;12.698;2024-02-04T06:13:25;6.00;99.90
14210;DHT22;7188;56.070;12.698;2024-02-04T06:15:51;6.10;99.90
14210;DHT22;7188;56.070;12.698;2024-02-04T06:18:17;6.10;99.90
14210;DHT22;7188;56.070;12.698;2024-02-04T06:20:43;6.10;99.90
14210;DHT22;7188;56.070;12.698;2024-02-04T06:23:08;6.10;99.90
14210;DHT22;7188;56.070;12.698;2024-02-04T06:25:34;6.20;99.90
14210;DHT22;7188;56.070;12.698;2024-02-04T06:28:03;6.20;99.90
14210;DHT22;7188;56.070;12.698;2024-02-04T06:30:28;6.10;99.90
14210;DHT22;7188;56.070;12.698;2024-02-04T06:32:54;6.20;99.90
14210;DHT22;7188;56.070;12.698;2024-02-04T06:35:22;6.20;99.90
14210;DHT22;7188;56.070;12.698;2024-02-04T06:37:47;6.20;99.90
14210;DHT22;7188;56.070;12.698;2024-02-04T06:40:13;6.10;99.90
14210;DHT22;7188;56.070;12.698;2024-02-04T06:42:38;6.10;99.90
14210;DHT22;7188;56.070;12.698;2024-02-04T06:45:04;6.20;99.90
14210;DHT22;7188;56.070;12.698;2024-02-04T06:47:30;6.10;99.90
14210;DHT22;7188;56.070;12.698;2024-02-04T06:49:56;6.10;99.90
14210;DHT22;7188;56.070;12.698;2024-02-04T06:52:21;6.10;99.90
14210;DHT22;7188;56.070;12.698;2024-02-04T06:54:47;6.10;99.90
14210;DHT22;7188;56.070;12.698;2024-02-04T06:57:12;6.10;99.90
14210;DHT22;7188;56.070;12.698;2024-02-04T06:59:38;6.10;99.90
14210;DHT22;7188;56.070;12.698;2024-02-04T07:02:04;6.10;99.90
14210;DHT22;7188;56.070;12.698;2024-02-04T07:04:29;6.10;99.90
14210;DHT22;7188;56.070;12.698;2024-02-04T07:06:55;6.10;99.90
14210;DHT22;7188;56.070;12.698;2024-02-04T07:09:21;6.10;99.90
14210;DHT22;7188;56.070;12.698;2024-02-04T07:11:46;6.10;99.90
14210;DHT22;7188;56.070;12.698;2024-02-04T07:14:12;6.10;99.90
14210;DHT22;7188;56.070;12.698;2024-02-04T07:16:38;6.10;99.90
14210;DHT22;7188;56.070;12.698;2024-02-04T07:19:04;6.10;99.90
14210;DHT22;7188;56.070;12.698;2024-02-04T07:21:29;6.10;99.90
14210;DHT22;7188;56.070;12.698;2024-02-04T07:23:55;6.10;99.90
14210;DHT22;7188;56.070;12.698;2024-02-04T07:26:20;6.10;99.90
14210;DHT22;7188;56.070;12.698;2024-02-04T07:28:46;6.10;99.90
14210;DHT22;7188;56.070;12.698;2024-02-04T07:31:12;6.10;99.90
14210;DHT22;7188;56.070;12.698;2024-02-04T07:33:37;6.10;99.90
14210;DHT22;7188;56.070;12.698;2024-02-04T07:36:03;6.10;99.90
14210;DHT22;7188;56.070;12.698;2024-02-04T07:38:29;6.10;99.90
14210;DHT22;7188;56.070;12.698;2024-02-04T07:40:54;6.10;99.90
14210;DHT22;7188;56.070;12.698;2024-02-04T07:43:21;6.10;99.90
14210;DHT22;7188;56.070;12.698;2024-02-04T07:45:47;6.10;99.90
14210;DHT22;7188;56.070;12.698;2024-02-04T07:48:13;6.20;99.90
14210;DHT22;7188;56.070;12.698;2024-02-04T07:50:39;6.10;99.90
14210;DHT22;7188;56.070;12.698;2024-02-04T07:53:04;6.20;99.90
14210;DHT22;7188;56.070;12.698;2024-02-04T07:55:30;6.20;99.90
14210;DHT22;7188;56.070;12.698;2024-02-04T07:57:55;6.20;99.90
14210;DHT22;7188;56.070;12.698;2024-02-04T08:00:21;6.20;99.90
14210;DHT22;7188;56.070;12.698;2024-02-04T08:02:47;6.20;99.90
14210;DHT22;7188;56.070;12.698;2024-02-04T08:05:13;6.20;99.90
14210;DHT22;7188;56.070;12.698;2024-02-04T08:07:38;6.20;99.90
14210;DHT22;7188;56.070;12.698;2024-02-04T08:10:05;6.20;99.90
14210;DHT22;7188;56.070;12.698;2024-02-04T08:12:31;6.20;99.90
14210;DHT22;7188;56.070;12.698;2024-02-04T08:14:56;6.30;99.90
14210;DHT22;7188;56.070;12.698;2024-02-04T08:17:22;6.20;99.90
14210;DHT22;7188;56.070;12.698;2024-02-04T08:19:48;6.30;99.90
14210;DHT22;7188;56.070;12.698;2024-02-04T08:22:13;6.30;99.90
14210;DHT22;7188;56.070;12.698;2024-02-04T08:27:46;6.30;99.90
14210;DHT22;7188;56.070;12.698;2024-02-04T08:30:12;6.30;99.90
14210;DHT22;7188;56.070;12.698;2024-02-04T08:32:38;6.30;99.90
14210;DHT22;7188;56.070;12.698;2024-02-04T08:35:04;6.40;99.90
14210;DHT22;7188;56.070;12.698;2024-02-04T08:37:34;6.40;99.90
14210;DHT22;7188;56.070;12.698;2024-02-04T08:40:01;6.30;99.90
14210;DHT22;7188;56.070;12.698;2024-02-04T08:42:26;6.40;99.90
14210;DHT22;7188;56.070;12.698;2024-02-04T08:44:52;6.40;99.90
14210;DHT22;7188;56.070;12.698;2024-02-04T08:47:18;6.40;99.90
14210;DHT22;7188;56.070;12.698;2024-02-04T08:49:44;6.40;99.90
14210;DHT22;7188;56.070;12.698;2024-02-04T08:52:10;6.40;99.90
14210;DHT22;7188;56.070;12.698;2024-02-04T08:54:35;6.40;99.90
14210;DHT22;7188;56.070;12.698;2024-02-04T08:57:01;6.40;99.90
14210;DHT22;7188;56.070;12.698;2024-02-04T08:59:26;6.40;99.90
14210;DHT22;7188;56.070;12.698;2024-02-04T09:01:52;6.40;99.90
14210;DHT22;7188;56.070;12.698;2024-02-04T09:04:18;6.50;99.90
14210;DHT22;7188;56.070;12.698;2024-02-04T09:06:43;6.50;99.90
14210;DHT22;7188;56.070;12.698;2024-02-04T09:09:15;6.50;99.90
14210;DHT22;7188;56.070;12.698;2024-02-04T09:11:41;6.50;99.90
14210;DHT22;7188;56.070;12.698;2024-02-04T09:14:07;6.60;99.90
14210;DHT22;7188;56.070;12.698;2024-02-04T09:16:33;6.60;99.90
14210;DHT22;7188;56.070;12.698;2024-02-04T09:18:58;6.60;99.90
14210;DHT22;7188;56.070;12.698;2024-02-04T09:21:24;6.60;99.90
14210;DHT22;7188;56.070;12.698;2024-02-04T09:23:50;6.60;99.90
14210;DHT22;7188;56.070;12.698;2024-02-04T09:26:15;6.60;99.90
14210;DHT22;7188;56.070;12.698;2024-02-04T09:28:41;6.70;99.90
14210;DHT22;7188;56.070;12.698;2024-02-04T09:31:09;6.70;99.90
14210;DHT22;7188;56.070;12.698;2024-02-04T09:33:35;6.70;99.90
14210;DHT22;7188;56.070;12.698;2024-02-04T09:36:03;6.70;99.90
14210;DHT22;7188;56.070;12.698;2024-02-04T09:38:29;6.70;99.90
14210;DHT22;7188;56.070;12.698;2024-02-04T09:40:55;6.70;99.90
14210;DHT22;7188;56.070;12.698;2024-02-04T09:43:21;6.70;99.90
14210;DHT22;7188;56.070;12.698;2024-02-04T09:45:47;6.70;99.90
14210;DHT22;7188;56.070;12.698;2024-02-04T09:48:17;6.70;99.90
14210;DHT22;7188;56.070;12.698;2024-02-04T09:50:44;6.80;99.90
14210;DHT22;7188;56.070;12.698;2024-02-04T09:53:13;6.80;99.90
14210;DHT22;7188;56.070;12.698;2024-02-04T09:55:40;6.80;99.90
14210;DHT22;7188;56.070;12.698;2024-02-04T09:58:06;6.80;99.90
14210;DHT22;7188;56.070;12.698;2024-02-04T10:00:33;6.80;99.90
14210;DHT22;7188;56.070;12.698;2024-02-04T10:02:59;6.90;99.90
14210;DHT22;7188;56.070;12.698;2024-02-04T10:05:26;6.90;99.90
14210;DHT22;7188;56.070;12.698;2024-02-04T10:07:52;6.90;99.90
14210;DHT22;7188;56.070;12.698;2024-02-04T10:10:18;6.90;99.90
14210;DHT22;7188;56.070;12.698;2024-02-04T10:12:43;6.90;99.90
14210;DHT22;7188;56.070;12.698;2024-02-04T10:15:09;6.90;99.90
14210;DHT22;7188;56.070;12.698;2024-02-04T10:17:35;6.90;99.90
14210;DHT22;7188;56.070;12.698;2024-02-04T10:20:02;6.90;99.90
14210;DHT22;7188;56.070;12.698;2024-02-04T10:22:28;7.00;99.90
14210;DHT22;7188;56.070;12.698;2024-02-04T10:25:04;7.00;99.90
14210;DHT22;7188;56.070;12.698;2024-02-04T10:27:31;7.00;99.90
14210;DHT22;7188;56.070;12.698;2024-02-04T10:29:56;7.00;99.90
14210;DHT22;7188;56.070;12.698;2024-02-04T10:32:22;7.00;99.90
14210;DHT22;7188;56.070;12.698;2024-02-04T10:34:48;7.10;99.90
14210;DHT22;7188;56.070;12.698;2024-02-04T10:37:14;7.10;99.90
14210;DHT22;7188;56.070;12.698;2024-02-04T10:39:39;7.10;99.90
14210;DHT22;7188;56.070;12.698;2024-02-04T10:42:06;7.00;99.90
14210;DHT22;7188;56.070;12.698;2024-02-04T10:44:36;7.10;99.90
14210;DHT22;7188;56.070;12.698;2024-02-04T10:47:05;7.10;99.90
14210;DHT22;7188;56.070;12.698;2024-02-04T10:49:34;7.10;99.90
14210;DHT22;7188;56.070;12.698;2024-02-04T10:52:00;7.10;99.90
14210;DHT22;7188;56.070;12.698;2024-02-04T10:54:27;7.10;99.90
14210;DHT22;7188;56.070;12.698;2024-02-04T10:57:03;7.10;99.90
14210;DHT22;7188;56.070;12.698;2024-02-04T10:59:31;7.10;99.90
14210;DHT22;7188;56.070;12.698;2024-02-04T11:01:58;7.10;99.90
14210;DHT22;7188;56.070;12.698;2024-02-04T11:04:24;7.00;99.90
14210;DHT22;7188;56.070;12.698;2024-02-04T11:06:52;7.00;99.90
14210;DHT22;7188;56.070;12.698;2024-02-04T11:09:19;7.00;99.90
14210;DHT22;7188;56.070;12.698;2024-02-04T11:11:45;7.10;99.90
14210;DHT22;7188;56.070;12.698;2024-02-04T11:14:18;7.10;99.90
14210;DHT22;7188;56.070;12.698;2024-02-04T11:25:49;7.20;99.90
14210;DHT22;7188;56.070;12.698;2024-02-04T11:28:16;7.20;99.90
14210;DHT22;7188;56.070;12.698;2024-02-04T11:30:44;7.30;99.90
14210;DHT22;7188;56.070;12.698;2024-02-04T11:33:12;7.30;99.90
14210;DHT22;7188;56.070;12.698;2024-02-04T11:35:38;7.40;99.90
14210;DHT22;7188;56.070;12.698;2024-02-04T11:38:05;7.40;99.90
14210;DHT22;7188;56.070;12.698;2024-02-04T11:40:37;7.40;99.90
14210;DHT22;7188;56.070;12.698;2024-02-04T11:43:13;7.40;99.90
14210;DHT22;7188;56.070;12.698;2024-02-04T11:45:43;7.40;99.90
14210;DHT22;7188;56.070;12.698;2024-02-04T11:48:10;7.40;99.90
14210;DHT22;7188;56.070;12.698;2024-02-04T11:50:39;7.50;99.90
14210;DHT22;7188;56.070;12.698;2024-02-04T11:53:12;7.50;99.90
14210;DHT22;7188;56.070;12.698;2024-02-04T11:55:40;7.50;99.90
14210;DHT22;7188;56.070;12.698;2024-02-04T11:58:07;7.50;99.90
14210;DHT22;7188;56.070;12.698;2024-02-04T12:00:52;7.40;99.90
14210;DHT22;7188;56.070;12.698;2024-02-04T12:03:29;7.40;99.90
14210;DHT22;7188;56.070;12.698;2024-02-04T12:05:55;7.40;99.90
14210;DHT22;7188;56.070;12.698;2024-02-04T12:08:21;7.40;99.90
14210;DHT22;7188;56.070;12.698;2024-02-04T12:10:47;7.40;99.90
14210;DHT22;7188;56.070;12.698;2024-02-04T12:13:13;7.40;99.90
14210;DHT22;7188;56.070;12.698;2024-02-04T12:15:40;7.40;99.90
14210;DHT22;7188;56.070;12.698;2024-02-04T12:18:10;7.30;99.90
14210;DHT22;7188;56.070;12.698;2024-02-04T12:20:41;7.40;99.90
14210;DHT22;7188;56.070;12.698;2024-02-04T12:23:08;7.30;99.90
14210;DHT22;7188;56.070;12.698;2024-02-04T12:25:34;7.30;99.90
14210;DHT22;7188;56.070;12.698;2024-02-04T12:28:01;7.20;99.90
14210;DHT22;7188;56.070;12.698;2024-02-04T12:30:28;7.00;99.90
14210;DHT22;7188;56.070;12.698;2024-02-04T12:32:58;7.00;99.90
14210;DHT22;7188;56.070;12.698;2024-02-04T12:35:28;7.00;99.90
14210;DHT22;7188;56.070;12.698;2024-02-04T12:37:55;7.00;99.90
14210;DHT22;7188;56.070;12.698;2024-02-04T12:40:26;7.10;99.90
14210;DHT22;7188;56.070;12.698;2024-02-04T12:43:02;7.00;99.90
14210;DHT22;7188;56.070;12.698;2024-02-04T12:45:28;7.00;99.90
14210;DHT22;7188;56.070;12.698;2024-02-04T12:47:58;7.00;99.90
14210;DHT22;7188;56.070;12.698;2024-02-04T12:50:24;7.00;99.90
14210;DHT22;7188;56.070;12.698;2024-02-04T12:53:03;7.00;99.90
14210;DHT22;7188;56.070;12.698;2024-02-04T12:55:31;6.90;99.90
14210;DHT22;7188;56.070;12.698;2024-02-04T12:58:13;6.90;99.90
14210;DHT22;7188;56.070;12.698;2024-02-04T13:00:43;6.80;99.90
14210;DHT22;7188;56.070;12.698;2024-02-04T13:03:09;6.80;99.90
14210;DHT22;7188;56.070;12.698;2024-02-04T13:05:35;6.70;99.90
14210;DHT22;7188;56.070;12.698;2024-02-04T13:08:02;6.60;99.90
14210;DHT22;7188;56.070;12.698;2024-02-04T13:10:29;6.60;99.90
14210;DHT22;7188;56.070;12.698;2024-02-04T13:15:29;6.50;99.90
14210;DHT22;7188;56.070;12.698;2024-02-04T13:17:55;6.40;99.90
14210;DHT22;7188;56.070;12.698;2024-02-04T13:20:30;6.30;99.90
14210;DHT22;7188;56.070;12.698;2024-02-04T13:22:55;6.30;99.90
14210;DHT22;7188;56.070;12.698;2024-02-04T13:25:22;6.30;99.90
14210;DHT22;7188;56.070;12.698;2024-02-04T13:27:52;6.30;99.90
14210;DHT22;7188;56.070;12.698;2024-02-04T13:30:18;6.20;99.90
14210;DHT22;7188;56.070;12.698;2024-02-04T13:32:45;6.10;99.90
14210;DHT22;7188;56.070;12.698;2024-02-04T13:35:11;6.10;99.90
14210;DHT22;7188;56.070;12.698;2024-02-04T13:37:39;6.10;99.90
14210;DHT22;7188;56.070;12.698;2024-02-04T13:40:05;6.00;99.90
14210;DHT22;7188;56.070;12.698;2024-02-04T13:42:32;6.00;99.90
14210;DHT22;7188;56.070;12.698;2024-02-04T13:44:59;6.00;99.90
14210;DHT22;7188;56.070;12.698;2024-02-04T13:47:26;6.00;99.90
14210;DHT22;7188;56.070;12.698;2024-02-04T13:49:51;6.10;99.90
14210;DHT22;7188;56.070;12.698;2024-02-04T13:52:17;6.10;99.90
14210;DHT22;7188;56.070;12.698;2024-02-04T13:54:44;6.10;99.90
14210;DHT22;7188;56.070;12.698;2024-02-04T13:57:09;6.10;99.90
14210;DHT22;7188;56.070;12.698;2024-02-04T13:59:36;6.10;99.90
14210;DHT22;7188;56.070;12.698;2024-02-04T14:02:02;6.20;99.90
14210;DHT22;7188;56.070;12.698;2024-02-04T14:04:37;6.20;99.90
14210;DHT22;7188;56.070;12.698;2024-02-04T14:07:03;6.20;99.90
14210;DHT22;7188;56.070;12.698;2024-02-04T14:09:29;6.20;99.90
14210;DHT22;7188;56.070;12.698;2024-02-04T14:11:54;6.20;99.90
14210;DHT22;7188;56.070;12.698;2024-02-04T14:14:22;6.30;99.90
14210;DHT22;7188;56.070;12.698;2024-02-04T14:16:47;6.30;99.90
14210;DHT22;7188;56.070;12.698;2024-02-04T14:19:13;6.30;99.90
14210;DHT22;7188;56.070;12.698;2024-02-04T14:21:40;6.40;99.90
14210;DHT22;7188;56.070;12.698;2024-02-04T14:24:06;6.30;99.90
14210;DHT22;7188;56.070;12.698;2024-02-04T14:26:31;6.40;99.90
14210;DHT22;7188;56.070;12.698;2024-02-04T14:28:58;6.30;99.90
14210;DHT22;7188;56.070;12.698;2024-02-04T14:31:23;6.30;99.90
14210;DHT22;7188;56.070;12.698;2024-02-04T14:33:49;6.30;99.90
14210;DHT22;7188;56.070;12.698;2024-02-04T14:36:15;6.30;99.90
14210;DHT22;7188;56.070;12.698;2024-02-04T14:38:41;6.30;99.90
14210;DHT22;7188;56.070;12.698;2024-02-04T14:41:07;6.30;99.90
14210;DHT22;7188;56.070;12.698;2024-02-04T14:43:33;6.30;99.90
14210;DHT22;7188;56.070;12.698;2024-02-04T14:45:59;6.30;99.90
14210;DHT22;7188;56.070;12.698;2024-02-04T14:48:25;6.30;99.90
14210;DHT22;7188;56.070;12.698;2024-02-04T14:50:50;6.30;99.90
14210;DHT22;7188;56.070;12.698;2024-02-04T14:53:17;6.30;99.90
14210;DHT22;7188;56.070;12.698;2024-02-04T14:55:42;6.30;99.90
14210;DHT22;7188;56.070;12.698;2024-02-04T14:58:09;6.30;99.90
14210;DHT22;7188;56.070;12.698;2024-02-04T15:00:34;6.30;99.90
14210;DHT22;7188;56.070;12.698;2024-02-04T15:03:00;6.30;99.90
14210;DHT22;7188;56.070;12.698;2024-02-04T15:05:26;6.30;99.90
14210;DHT22;7188;56.070;12.698;2024-02-04T15:07:51;6.30;99.90
14210;DHT22;7188;56.070;12.698;2024-02-04T15:10:20;6.30;99.90
14210;DHT22;7188;56.070;12.698;2024-02-04T15:12:46;6.40;99.90
14210;DHT22;7188;56.070;12.698;2024-02-04T15:15:12;6.30;99.90
14210;DHT22;7188;56.070;12.698;2024-02-04T15:17:38;6.30;99.90
14210;DHT22;7188;56.070;12.698;2024-02-04T15:20:05;6.30;99.90
14210;DHT22;7188;56.070;12.698;2024-02-04T15:22:31;6.30;99.90
14210;DHT22;7188;56.070;12.698;2024-02-04T15:24:57;6.30;99.90
14210;DHT22;7188;56.070;12.698;2024-02-04T15:27:24;6.30;99.90
14210;DHT22;7188;56.070;12.698;2024-02-04T15:29:50;6.30;99.90
14210;DHT22;7188;56.070;12.698;2024-02-04T15:32:17;6.30;99.90
14210;DHT22;7188;56.070;12.698;2024-02-04T15:34:43;6.30;99.90
14210;DHT22;7188;56.070;12.698;2024-02-04T15:37:09;6.20;99.90
14210;DHT22;7188;56.070;12.698;2024-02-04T15:39:35;6.20;99.90
14210;DHT22;7188;56.070;12.698;2024-02-04T15:42:03;6.10;99.90
14210;DHT22;7188;56.070;12.698;2024-02-04T15:44:30;6.10;99.90
14210;DHT22;7188;56.070;12.698;2024-02-04T15:46:56;6.00;99.90
14210;DHT22;7188;56.070;12.698;2024-02-04T15:49:24;6.00;99.90
14210;DHT22;7188;56.070;12.698;2024-02-04T15:51:52;6.00;99.90
14210;DHT22;7188;56.070;12.698;2024-02-04T15:54:18;5.90;99.90
14210;DHT22;7188;56.070;12.698;2024-02-04T15:57:01;5.90;99.90
14210;DHT22;7188;56.070;12.698;2024-02-04T15:59:50;5.90;99.90
14210;DHT22;7188;56.070;12.698;2024-02-04T16:02:17;5.80;99.90